Iberia, Ohio
Current Conditions -  °F | °C
As of 9:53 AM on Thursday 23 Oct 2014 (Local Time) from KMNN Reporting Station
Moderate Fog Moderate Fog  
Wind Chill:   Ceiling: 200
Heat Index:   Visibility: 0mi
Dew Point:   Wind: 5mph
Humidity: 97%   Direction: 310°NW
Pressure: 30.26"   Gusts: NA
Location:  40.67°N, 82.84°W
Report Text: KMNN 231353Z AUTO 31004KT M1/4SM FG VV002 04/04 A3026 RMK AO2 SLP253 T00440039 TSNO
Loading
Personal Weather Stations






























Interactive Weather Map
Tropical Storm Tracking
New forecast layout! Learn more

10-Day Weather Forecast

Advertisements
Track Severe Weather on mobile